createdAt,value
2018-12-29T00:01:44.798Z,103.90
2018-12-29T00:04:14.476Z,97.03
2018-12-29T00:06:44.172Z,89.20
2018-12-29T00:09:13.846Z,96.70
2018-12-29T00:11:43.527Z,99.93
2018-12-29T00:14:13.213Z,99.55
2018-12-29T00:16:42.901Z,92.17
2018-12-29T00:19:12.577Z,83.93
2018-12-29T00:21:42.268Z,91.93
2018-12-29T00:24:11.952Z,86.30
2018-12-29T00:26:41.631Z,87.93
2018-12-29T00:29:11.306Z,109.97
2018-12-29T00:31:40.992Z,87.63
2018-12-29T00:34:10.672Z,93.90
2018-12-29T00:36:40.593Z,89.40
2018-12-29T00:39:10.287Z,99.67
2018-12-29T00:41:39.969Z,94.72
2018-12-29T00:44:09.647Z,99.43
2018-12-29T00:46:39.347Z,101.10
2018-12-29T00:49:09.044Z,86.87
2018-12-29T00:51:38.716Z,88.53
2018-12-29T00:54:08.630Z,104.17
2018-12-29T00:56:38.320Z,101.45
2018-12-29T00:59:08.015Z,97.40
2018-12-29T01:01:37.719Z,88.60
2018-12-29T01:04:07.653Z,109.03
2018-12-29T01:06:37.573Z,90.40
2018-12-29T01:09:07.620Z,88.90
2018-12-29T01:11:37.308Z,94.40
2018-12-29T01:14:07.329Z,88.00
2018-12-29T01:16:37.105Z,99.00
2018-12-29T01:19:06.786Z,83.87
2018-12-29T01:21:36.473Z,111.37
2018-12-29T01:24:06.152Z,92.95
2018-12-29T01:26:35.839Z,90.03
2018-12-29T01:29:05.530Z,83.60
2018-12-29T01:31:35.208Z,85.28
2018-12-29T01:34:05.330Z,95.50
2018-12-29T01:36:35.091Z,80.30
2018-12-29T01:39:06.617Z,101.27
2018-12-29T01:41:36.289Z,85.33
2018-12-29T01:44:05.977Z,85.00
2018-12-29T01:46:35.664Z,80.80
2018-12-29T01:49:05.614Z,82.93
2018-12-29T01:51:35.575Z,88.40
2018-12-29T01:54:05.802Z,86.92
2018-12-29T01:56:35.486Z,90.80
2018-12-29T01:59:06.331Z,86.85
2018-12-29T02:01:36.141Z,87.30
2018-12-29T02:04:05.825Z,93.87
2018-12-29T02:06:35.514Z,82.67
2018-12-29T02:09:06.779Z,95.65
2018-12-29T02:11:36.466Z,81.53
2018-12-29T02:14:06.156Z,94.03
2018-12-29T02:16:35.848Z,84.87
2018-12-29T02:19:05.569Z,86.33
2018-12-29T02:21:35.274Z,91.00
2018-12-29T02:24:05.458Z,87.97
2018-12-29T02:26:35.132Z,85.23
2018-12-29T02:29:05.626Z,89.37
2018-12-29T02:31:36.387Z,90.30
2018-12-29T02:34:06.160Z,79.50
2018-12-29T02:36:36.105Z,89.30
2018-12-29T02:39:07.657Z,96.53
2018-12-29T02:41:37.356Z,86.05
2018-12-29T02:44:07.043Z,91.90
2018-12-29T02:46:36.752Z,102.13
2018-12-29T02:49:06.671Z,85.23
2018-12-29T02:51:36.606Z,88.93
2018-12-29T02:54:06.303Z,92.07
2018-12-29T02:56:35.972Z,97.00
2018-12-29T02:59:05.666Z,84.63
2018-12-29T03:01:35.348Z,87.37
2018-12-29T03:04:05.469Z,100.03
2018-12-29T03:06:35.146Z,94.17
2018-12-29T03:09:06.326Z,96.10
2018-12-29T03:11:36.018Z,86.93
2018-12-29T03:14:05.959Z,104.30
2018-12-29T03:16:35.663Z,86.70
2018-12-29T03:19:05.534Z,81.67
2018-12-29T03:21:35.250Z,94.00
2018-12-29T03:24:05.480Z,87.92
2018-12-29T03:26:35.900Z,82.63
2018-12-29T03:29:05.593Z,92.73
2018-12-29T03:31:35.282Z,99.30
2018-12-29T03:34:05.082Z,94.50
2018-12-29T03:36:34.785Z,81.57
2018-12-29T03:39:07.250Z,90.72
2018-12-29T03:41:36.973Z,98.93
2018-12-29T03:44:06.657Z,83.13
2018-12-29T03:46:36.330Z,97.47
2018-12-29T03:49:06.012Z,90.93
2018-12-29T03:51:35.970Z,92.13
2018-12-29T03:54:05.670Z,83.93
2018-12-29T03:56:35.363Z,108.87
2018-12-29T03:59:05.899Z,101.75
2018-12-29T04:01:35.618Z,99.53
2018-12-29T04:04:05.426Z,83.27
2018-12-29T04:06:35.117Z,88.03
2018-12-29T04:09:32.123Z,98.40
2018-12-29T04:12:05.004Z,101.23
2018-12-29T04:14:35.375Z,89.10
2018-12-29T04:17:05.271Z,99.37
2018-12-29T04:19:35.041Z,93.40
2018-12-29T04:22:05.471Z,103.92
2018-12-29T04:24:35.169Z,96.57
2018-12-29T04:27:05.464Z,83.50
2018-12-29T04:29:35.152Z,101.73
2018-12-29T04:32:05.468Z,103.53
2018-12-29T04:34:35.375Z,124.13
2018-12-29T04:37:05.570Z,108.00
2018-12-29T04:39:35.281Z,94.80
2018-12-29T04:42:05.309Z,103.87
2018-12-29T04:44:35.025Z,93.87
2018-12-29T04:47:05.326Z,84.97
2018-12-29T04:49:35.021Z,97.63
2018-12-29T04:52:05.299Z,91.32
2018-12-29T04:54:34.990Z,101.67
2018-12-29T04:57:05.985Z,96.75
2018-12-29T04:59:36.494Z,107.63
2018-12-29T05:02:06.224Z,104.70
2018-12-29T05:04:35.932Z,112.53
2018-12-29T05:07:05.630Z,102.80
2018-12-29T05:09:35.332Z,103.77
2018-12-29T05:12:05.658Z,83.30
2018-12-29T05:14:35.370Z,105.90
2018-12-29T05:17:05.165Z,99.97
2018-12-29T05:19:34.909Z,106.77
2018-12-29T05:22:05.410Z,92.25
2018-12-29T05:24:35.112Z,115.53
2018-12-29T05:27:05.870Z,105.90
2018-12-29T05:29:35.793Z,114.23
2018-12-29T05:32:05.708Z,100.37
2018-12-29T05:34:35.403Z,107.30
2018-12-29T05:37:06.035Z,105.07
2018-12-29T05:39:35.752Z,104.67
2018-12-29T05:42:05.437Z,95.47
2018-12-29T05:44:35.478Z,126.40
2018-12-29T05:47:05.578Z,97.25
2018-12-29T05:49:35.407Z,118.93
2018-12-29T05:52:05.723Z,121.00
2018-12-29T05:54:35.536Z,114.87
2018-12-29T05:57:05.542Z,111.40
2018-12-29T05:59:35.250Z,90.43
2018-12-29T06:02:05.371Z,106.10
2018-12-29T06:04:35.740Z,97.97
2018-12-29T06:07:05.495Z,92.23
2018-12-29T06:09:35.522Z,92.37
2018-12-29T06:12:05.561Z,112.03
2018-12-29T06:14:35.283Z,119.03
2018-12-29T06:17:05.670Z,111.55
2018-12-29T06:19:35.381Z,116.77
2018-12-29T06:22:05.298Z,96.97
2018-12-29T06:24:35.135Z,106.97
2018-12-29T06:27:05.529Z,90.80
2018-12-29T06:29:35.567Z,90.30
2018-12-29T06:32:05.527Z,106.00
2018-12-29T06:34:35.588Z,112.75
2018-12-29T06:37:05.378Z,100.13
2018-12-29T06:39:35.092Z,115.03
2018-12-29T06:42:05.426Z,108.52
2018-12-29T06:44:35.146Z,118.30
2018-12-29T06:47:05.464Z,106.80
2018-12-29T06:49:37.148Z,103.57
2018-12-29T06:52:06.854Z,91.73
2018-12-29T06:54:36.591Z,104.33
2018-12-29T06:57:06.254Z,97.53
2018-12-29T06:59:35.952Z,117.30
2018-12-29T07:02:06.050Z,102.40
2018-12-29T07:04:35.742Z,108.17
2018-12-29T07:07:05.443Z,99.43
2018-12-29T07:09:35.215Z,130.97
2018-12-29T07:12:05.630Z,112.88
2018-12-29T07:14:35.339Z,103.47
2018-12-29T07:17:05.141Z,109.87
2018-12-29T07:19:34.829Z,89.97
2018-12-29T07:22:05.308Z,102.13
2018-12-29T07:24:35.010Z,104.80
2018-12-29T07:27:05.135Z,103.13
2018-12-29T07:29:38.170Z,98.63
2018-12-29T07:32:06.426Z,114.00
2018-12-29T07:34:36.137Z,92.97
2018-12-29T07:37:05.887Z,84.73
2018-12-29T07:39:35.616Z,103.00
2018-12-29T07:42:05.302Z,99.00
2018-12-29T07:44:35.713Z,112.07
2018-12-29T07:47:05.438Z,85.50
2018-12-29T07:49:35.126Z,95.93
2018-12-29T07:52:05.148Z,99.07
2018-12-29T07:54:34.844Z,105.33
2018-12-29T07:57:05.738Z,89.43
2018-12-29T07:59:35.433Z,112.40
2018-12-29T08:02:05.239Z,116.93
2018-12-29T08:04:34.924Z,96.17
2018-12-29T08:07:05.250Z,90.87
2018-12-29T08:09:34.952Z,101.23
2018-12-29T08:12:05.561Z,99.67
2018-12-29T08:14:35.308Z,95.63
2018-12-29T08:17:05.671Z,89.53
2018-12-29T08:19:35.572Z,86.70
2018-12-29T08:22:05.454Z,95.40
2018-12-29T08:24:35.155Z,83.00
2018-12-29T08:27:05.067Z,89.27
2018-12-29T08:29:34.797Z,84.60
2018-12-29T08:32:05.409Z,83.22
2018-12-29T08:34:35.089Z,83.57
2018-12-29T08:37:05.134Z,98.10
2018-12-29T08:39:34.832Z,90.13
2018-12-29T08:42:04.680Z,91.07
2018-12-29T08:44:34.376Z,83.13
2018-12-29T08:47:04.896Z,81.57
2018-12-29T08:49:34.901Z,87.20
2018-12-29T08:52:05.658Z,83.33
2018-12-29T08:54:35.359Z,87.93
2018-12-29T08:57:05.568Z,92.20
2018-12-29T08:59:35.287Z,78.43
2018-12-29T09:02:05.461Z,92.12
2018-12-29T09:04:35.145Z,93.10
2018-12-29T09:07:05.439Z,82.37
2018-12-29T09:09:35.987Z,89.17
2018-12-29T09:12:05.663Z,76.20
2018-12-29T09:14:35.346Z,95.80
2018-12-29T09:17:11.870Z,90.20
2018-12-29T09:19:36.880Z,91.53
2018-12-29T09:22:06.577Z,96.90
2018-12-29T09:24:36.281Z,98.80
2018-12-29T09:27:05.989Z,89.70
2018-12-29T09:29:35.688Z,108.70
2018-12-29T09:32:05.386Z,93.27
2018-12-29T09:34:35.390Z,93.07
2018-12-29T09:37:05.523Z,94.87
2018-12-29T09:39:35.216Z,97.13
2018-12-29T09:42:05.378Z,85.87
2018-12-29T09:44:35.074Z,101.30
2018-12-29T09:47:05.406Z,89.23
2018-12-29T09:49:35.489Z,99.33
2018-12-29T09:52:05.327Z,110.97
2018-12-29T09:54:35.017Z,92.40
2018-12-29T09:57:05.485Z,95.90
2018-12-29T09:59:35.178Z,98.07
2018-12-29T10:02:05.397Z,97.50
2018-12-29T10:04:35.095Z,102.70
2018-12-29T10:07:05.862Z,88.43
2018-12-29T10:09:35.553Z,91.23
2018-12-29T10:12:05.322Z,90.37
2018-12-29T10:14:35.054Z,94.20
2018-12-29T10:17:05.056Z,87.20
2018-12-29T10:19:34.757Z,85.27
2018-12-29T10:22:05.514Z,80.27
2018-12-29T10:24:35.236Z,81.40
2018-12-29T10:27:05.132Z,80.47
2018-12-29T10:29:34.853Z,81.00
2018-12-29T10:32:06.040Z,83.97
2018-12-29T10:34:35.728Z,87.27
2018-12-29T10:37:05.423Z,75.50
2018-12-29T10:39:35.181Z,70.63
2018-12-29T10:42:06.064Z,74.82
2018-12-29T10:44:36.131Z,77.85
2018-12-29T10:47:05.831Z,76.00
2018-12-29T10:49:35.529Z,67.10
2018-12-29T10:52:05.852Z,70.10
2018-12-29T10:54:35.674Z,69.03
2018-12-29T10:57:05.503Z,71.03
2018-12-29T10:59:35.189Z,64.53
2018-12-29T11:02:05.791Z,68.70
2018-12-29T11:04:35.498Z,63.90
2018-12-29T11:07:05.318Z,62.50
2018-12-29T11:09:34.993Z,64.57
2018-12-29T11:12:05.537Z,59.40
2018-12-29T11:14:35.414Z,59.73
2018-12-29T11:17:05.490Z,63.80
2018-12-29T11:19:36.422Z,53.70
2018-12-29T11:22:06.113Z,53.77
2018-12-29T11:24:37.447Z,57.47
2018-12-29T11:27:07.201Z,49.63
2018-12-29T11:29:36.892Z,50.23
2018-12-29T11:32:06.598Z,54.60
2018-12-29T11:34:36.269Z,49.77
2018-12-29T11:37:06.276Z,49.73
2018-12-29T11:39:35.976Z,52.23
2018-12-29T11:42:05.652Z,55.00
2018-12-29T11:44:35.343Z,46.97
2018-12-29T11:47:05.573Z,45.85
2018-12-29T11:49:35.546Z,43.33
2018-12-29T11:54:59.672Z,43.83
2018-12-29T11:57:29.354Z,44.87
2018-12-29T11:59:59.050Z,40.48
2018-12-29T12:02:29.006Z,44.90
2018-12-29T12:04:58.701Z,43.70
2018-12-29T12:07:28.369Z,45.27
2018-12-29T12:09:58.128Z,47.55
2018-12-29T12:12:27.816Z,44.53
2018-12-29T12:14:57.490Z,47.83
2018-12-29T12:17:27.174Z,45.20
2018-12-29T12:19:56.862Z,47.03
2018-12-29T12:22:26.560Z,46.00
2018-12-29T12:24:56.237Z,46.53
2018-12-29T12:27:25.924Z,45.00
2018-12-29T12:29:55.899Z,54.40
2018-12-29T12:32:25.594Z,44.60
2018-12-29T12:34:55.451Z,48.53
2018-12-29T12:37:25.394Z,48.50
2018-12-29T12:39:55.341Z,48.27
2018-12-29T12:42:25.481Z,51.03
2018-12-29T12:44:55.165Z,48.80
2018-12-29T12:47:24.850Z,54.17
2018-12-29T12:49:54.532Z,54.97
2018-12-29T12:52:24.508Z,51.88
2018-12-29T12:54:54.198Z,50.70
2018-12-29T12:57:24.143Z,52.37
2018-12-29T12:59:54.117Z,53.63
2018-12-29T13:02:23.980Z,53.77
2018-12-29T13:04:53.679Z,58.07
2018-12-29T13:07:23.385Z,53.43
2018-12-29T13:09:53.066Z,57.40
2018-12-29T13:12:22.749Z,62.55
2018-12-29T13:14:52.696Z,49.10
2018-12-29T13:17:22.363Z,55.05
2018-12-29T13:19:52.045Z,59.27
2018-12-29T13:22:21.979Z,57.25
2018-12-29T13:24:51.930Z,61.23
2018-12-29T13:27:21.864Z,55.90
2018-12-29T13:29:51.783Z,58.23
2018-12-29T13:32:21.466Z,56.23
2018-12-29T13:34:51.166Z,53.27
2018-12-29T13:37:21.127Z,52.78
2018-12-29T13:39:50.817Z,52.23
2018-12-29T13:42:20.518Z,51.35
2018-12-29T13:44:50.429Z,55.07
2018-12-29T13:47:20.119Z,48.43
2018-12-29T13:49:49.792Z,48.73
2018-12-29T13:52:19.472Z,50.40
2018-12-29T13:54:49.389Z,49.33
2018-12-29T13:57:19.081Z,51.93
2018-12-29T13:59:49.273Z,50.70
2018-12-29T14:02:18.949Z,41.87
2018-12-29T14:04:48.658Z,45.57
2018-12-29T14:07:18.583Z,42.65
2018-12-29T14:09:48.287Z,58.20
2018-12-29T14:12:18.205Z,53.73
2018-12-29T14:14:47.904Z,45.90
2018-12-29T14:17:17.589Z,48.37
2018-12-29T14:19:47.269Z,47.97
2018-12-29T14:22:17.238Z,40.38
2018-12-29T14:24:46.928Z,41.83
2018-12-29T14:27:16.631Z,41.85
2018-12-29T14:29:46.309Z,47.60
2018-12-29T14:32:16.244Z,52.43
2018-12-29T14:34:46.165Z,46.20
2018-12-29T14:37:15.872Z,57.23
2018-12-29T14:39:45.554Z,55.57
2018-12-29T14:42:15.494Z,49.67
2018-12-29T14:44:45.456Z,44.00
2018-12-29T14:47:15.365Z,42.70
2018-12-29T14:49:45.057Z,41.07
2018-12-29T14:52:14.762Z,40.30
2018-12-29T14:54:45.426Z,46.40
2018-12-29T14:57:15.370Z,44.83
2018-12-29T14:59:45.067Z,45.10
2018-12-29T15:02:14.746Z,45.27
2018-12-29T15:04:44.516Z,43.93
2018-12-29T15:07:14.487Z,35.73
2018-12-29T15:09:44.169Z,45.00
2018-12-29T15:12:13.849Z,37.97
2018-12-29T15:14:43.553Z,39.07
2018-12-29T15:17:13.332Z,39.37
2018-12-29T15:19:43.250Z,38.92
2018-12-29T15:22:12.926Z,35.75
2018-12-29T15:24:43.058Z,37.83
2018-12-29T15:27:13.001Z,40.07
2018-12-29T15:29:43.171Z,36.27
2018-12-29T15:32:13.141Z,34.33
2018-12-29T15:34:42.827Z,33.57
2018-12-29T15:37:12.501Z,37.85
2018-12-29T15:39:42.424Z,38.97
2018-12-29T15:42:12.121Z,35.20
2018-12-29T15:44:41.811Z,36.37
2018-12-29T15:47:11.497Z,36.60
2018-12-29T15:49:41.173Z,27.73
2018-12-29T15:52:11.092Z,33.97
2018-12-29T15:54:41.477Z,39.05
2018-12-29T15:57:11.161Z,33.33
2018-12-29T15:59:41.100Z,37.10
2018-12-29T16:02:10.794Z,32.17
2018-12-29T16:04:40.465Z,37.63
2018-12-29T16:07:10.137Z,35.90
2018-12-29T16:09:40.427Z,31.57
2018-12-29T16:12:10.129Z,30.55
2018-12-29T16:14:39.831Z,31.07
2018-12-29T16:17:09.514Z,33.43
2018-12-29T16:19:39.200Z,31.87
2018-12-29T16:22:09.137Z,39.47
2018-12-29T16:24:38.807Z,36.60
2018-12-29T16:27:08.818Z,39.77
2018-12-29T16:29:38.493Z,33.60
2018-12-29T16:32:08.182Z,38.33
2018-12-29T16:34:37.886Z,39.67
2018-12-29T16:37:07.578Z,37.33
2018-12-29T16:39:37.536Z,40.53
2018-12-29T16:42:07.239Z,42.73
2018-12-29T16:44:36.927Z,44.30
2018-12-29T16:47:06.616Z,47.17
2018-12-29T16:49:36.647Z,41.80
2018-12-29T16:52:06.339Z,43.60
2018-12-29T16:54:36.027Z,40.47
2018-12-29T16:57:05.712Z,42.83
2018-12-29T16:59:35.792Z,45.60
2018-12-29T17:02:05.490Z,42.60
2018-12-29T17:04:35.181Z,44.90
2018-12-29T17:07:05.362Z,44.95
2018-12-29T17:09:35.053Z,49.83
2018-12-29T17:12:05.156Z,49.07
2018-12-29T17:14:34.890Z,43.47
2018-12-29T17:17:05.169Z,46.20
2018-12-29T17:19:35.130Z,48.05
2018-12-29T17:22:05.594Z,46.75
2018-12-29T17:24:35.281Z,49.90
2018-12-29T17:27:05.374Z,50.07
2018-12-29T17:29:35.052Z,49.10
2018-12-29T17:32:05.444Z,43.03
2018-12-29T17:34:35.144Z,50.20
2018-12-29T17:37:04.908Z,42.97
2018-12-29T17:39:34.992Z,52.87
2018-12-29T17:42:05.524Z,42.93
2018-12-29T17:44:35.456Z,49.10
2018-12-29T17:47:06.002Z,40.60
2018-12-29T17:49:35.689Z,46.43
2018-12-29T17:52:05.653Z,45.43
2018-12-29T17:54:35.605Z,46.60
2018-12-29T17:57:05.603Z,46.43
2018-12-29T17:59:35.297Z,43.13
2018-12-29T18:02:05.667Z,43.78
2018-12-29T18:04:35.525Z,40.77
2018-12-29T18:07:06.447Z,48.17
2018-12-29T18:09:36.141Z,44.13
2018-12-29T18:12:05.824Z,42.53
2018-12-29T18:14:35.529Z,47.77
2018-12-29T18:17:17.589Z,39.10
2018-12-29T18:19:47.295Z,40.25
2018-12-29T18:22:16.976Z,33.00
2018-12-29T18:24:46.738Z,34.57
2018-12-29T18:27:18.166Z,33.30
2018-12-29T18:29:48.003Z,27.83
2018-12-29T18:32:17.707Z,26.43
2018-12-29T18:34:48.161Z,25.47
2018-12-29T18:37:18.109Z,19.20
2018-12-29T18:39:47.804Z,20.80
2018-12-29T18:42:17.718Z,21.37
2018-12-29T18:44:47.405Z,23.57
2018-12-29T18:47:17.091Z,22.67
2018-12-29T18:49:47.754Z,16.60
2018-12-29T18:52:17.435Z,16.60
2018-12-29T18:54:47.387Z,15.77
2018-12-29T18:57:17.085Z,16.50
2018-12-29T18:59:46.769Z,16.60
2018-12-29T19:02:16.463Z,17.23
2018-12-29T19:04:46.218Z,14.60
2018-12-29T19:07:16.142Z,11.90
2018-12-29T19:09:45.993Z,15.83
2018-12-29T19:12:15.961Z,14.07
2018-12-29T19:14:45.656Z,13.37
2018-12-29T19:17:15.374Z,16.57
2018-12-29T19:19:46.472Z,13.10
2018-12-29T19:22:16.388Z,14.13
2018-12-29T19:24:46.078Z,9.20
2018-12-29T19:27:15.760Z,16.17
2018-12-29T19:29:45.730Z,20.07
2018-12-29T19:32:32.787Z,13.93
2018-12-29T19:35:03.070Z,14.73
2018-12-29T19:37:34.096Z,15.20
2018-12-29T19:40:04.067Z,14.50
2018-12-29T19:42:34.028Z,18.47
2018-12-29T19:45:03.780Z,15.57
2018-12-29T19:47:33.452Z,20.27
2018-12-29T19:50:03.421Z,19.63
2018-12-29T19:52:33.094Z,24.40
2018-12-29T19:55:02.777Z,24.07
2018-12-29T19:57:32.443Z,16.23
2018-12-29T20:00:02.773Z,19.98
2018-12-29T20:02:34.997Z,19.20
2018-12-29T20:05:05.240Z,17.52
2018-12-29T20:07:34.943Z,18.87
2018-12-29T20:10:06.001Z,19.85
2018-12-29T20:12:35.694Z,15.13
2018-12-29T20:15:06.579Z,13.53
2018-12-29T20:17:36.521Z,15.77
2018-12-29T20:20:06.427Z,16.53
2018-12-29T20:22:36.640Z,15.60
2018-12-29T20:25:07.213Z,20.83
2018-12-29T20:27:36.895Z,16.10
2018-12-29T20:30:07.818Z,18.90
2018-12-29T20:32:37.496Z,16.50
2018-12-29T20:35:07.245Z,13.13
2018-12-29T20:37:36.922Z,19.87
2018-12-29T20:40:06.710Z,14.73
2018-12-29T20:42:36.397Z,19.87
2018-12-29T20:45:06.387Z,16.00
2018-12-29T20:47:36.072Z,17.37
2018-12-29T20:50:09.584Z,11.27
2018-12-29T20:52:38.733Z,18.97
2018-12-29T20:55:08.487Z,17.37
2018-12-29T20:57:38.511Z,17.43
2018-12-29T21:00:09.851Z,23.10
2018-12-29T21:02:39.577Z,15.43
2018-12-29T21:05:09.532Z,17.87
2018-12-29T21:07:39.212Z,21.47
2018-12-29T21:10:08.927Z,16.85
2018-12-29T21:12:38.867Z,15.60
2018-12-29T21:15:08.702Z,21.90
2018-12-29T21:17:38.399Z,15.77
2018-12-29T21:20:08.167Z,22.00
2018-12-29T21:22:37.847Z,16.23
2018-12-29T21:25:07.516Z,18.40
2018-12-29T21:27:37.192Z,15.50
2018-12-29T21:30:07.178Z,16.47
2018-12-29T21:32:36.872Z,16.70
2018-12-29T21:35:06.788Z,15.87
2018-12-29T21:37:36.460Z,15.30
2018-12-29T21:40:07.117Z,18.83
2018-12-29T21:42:36.800Z,18.23
2018-12-29T21:45:06.790Z,15.50
2018-12-29T21:47:36.530Z,16.30
2018-12-29T21:50:07.144Z,14.60
2018-12-29T21:52:36.849Z,20.87
2018-12-29T21:55:06.635Z,17.30
2018-12-29T21:57:36.383Z,22.57
2018-12-29T22:00:07.471Z,19.87
2018-12-29T22:02:37.288Z,18.80
2018-12-29T22:05:07.048Z,21.77
2018-12-29T22:07:36.727Z,22.10
2018-12-29T22:10:06.886Z,19.47
2018-12-29T22:12:36.564Z,21.33
2018-12-29T22:15:08.274Z,18.42
2018-12-29T22:17:38.038Z,24.10
2018-12-29T22:20:08.148Z,22.07
2018-12-29T22:22:37.837Z,19.83
2018-12-29T22:25:07.606Z,16.63
2018-12-29T22:27:38.495Z,21.45
2018-12-29T22:30:08.350Z,17.40
2018-12-29T22:32:38.054Z,17.80
2018-12-29T22:35:07.796Z,24.57
2018-12-29T22:37:37.607Z,17.47
2018-12-29T22:40:07.442Z,19.93
2018-12-29T22:42:37.135Z,21.20
2018-12-29T22:45:07.202Z,18.37
2018-12-29T22:47:36.900Z,20.97
2018-12-29T22:50:07.492Z,25.77
2018-12-29T22:52:37.171Z,24.30
2018-12-29T22:55:07.045Z,20.47
2018-12-29T22:57:37.390Z,22.60
2018-12-29T23:00:12.580Z,22.00
2018-12-29T23:02:43.140Z,21.43
2018-12-29T23:05:13.072Z,17.73
2018-12-29T23:07:43.013Z,16.23
2018-12-29T23:10:12.787Z,16.50
2018-12-29T23:12:42.456Z,19.33
2018-12-29T23:15:12.572Z,26.23
2018-12-29T23:17:42.256Z,19.67
2018-12-29T23:20:11.928Z,19.03
2018-12-29T23:22:41.604Z,20.07
2018-12-29T23:25:11.287Z,28.15
2018-12-29T23:27:41.241Z,25.50
2018-12-29T23:30:10.929Z,15.05
2018-12-29T23:32:40.976Z,25.70
2018-12-29T23:35:10.650Z,26.50
2018-12-29T23:37:40.329Z,20.53
2018-12-29T23:40:10.252Z,19.30
2018-12-29T23:42:40.186Z,20.40
2018-12-29T23:45:09.867Z,17.87
2018-12-29T23:47:39.829Z,15.40
2018-12-29T23:50:09.517Z,23.20
2018-12-29T23:52:39.584Z,13.50
2018-12-29T23:55:09.265Z,18.53
2018-12-29T23:57:39.026Z,16.93
